This is the latest recevied weather packets stored in our database for station/object KB8TTR. If no packets are shown the sender has not sent any weather packets the latest 10 day(s).
| Time | Temp. | Humidity | Pressure | Rain* | Wind** | Luminosity | Snow |
|---|---|---|---|---|---|---|---|
| 1788015203 | 23.89° C | 58% | 1024.3 hPa | 0 mm | - | 547 W/m² | - |
| 1788014901 | 23.89° C | 57% | 1024.3 hPa | 0 mm | - | 534 W/m² | - |
| 1788014596 | 23.89° C | 58% | 1024.5 hPa | 0 mm | - | 519 W/m² | - |
| 1788014291 | 23.33° C | 60% | 1024.4 hPa | 0 mm | - | 506 W/m² | - |
| 1788013987 | 23.33° C | 59% | 1024.5 hPa | 0 mm | - | 374 W/m² | - |
| 1788013681 | 23.33° C | 60% | 1024.6 hPa | 0 mm | - | 390 W/m² | - |
| 1788013381 | 22.78° C | 60% | 1024.6 hPa | 0 mm | - | 384 W/m² | - |
| 1788013080 | 22.78° C | 60% | 1024.6 hPa | 0 mm | - | 478 W/m² | - |
| 1788012779 | 22.22° C | 61% | 1024.5 hPa | 0 mm | - | 487 W/m² | - |
| 1788012475 | 22.22° C | 60% | 1024.7 hPa | 0 mm | - | 332 W/m² | - |
| 1788012174 | 22.22° C | 61% | 1024.5 hPa | 0 mm | - | 441 W/m² | - |
| 1788011874 | 22.22° C | 60% | 1024.6 hPa | 0 mm | - | 401 W/m² | - |
| 1788011572 | 22.22° C | 60% | 1024.4 hPa | 0 mm | - | 363 W/m² | - |
| 1788011268 | 21.67° C | 63% | 1024.4 hPa | 0 mm | - | 342 W/m² | - |
| 1788010967 | 21.11° C | 64% | 1024.5 hPa | 0 mm | - | 322 W/m² | - |
| 1788010663 | 21.11° C | 64% | 1024.5 hPa | 0 mm | - | 299 W/m² | - |
| 1788010361 | 20.56° C | 65% | 1024.5 hPa | 0 mm | - | 282 W/m² | - |
| 1788010061 | 20.56° C | 66% | 1024.7 hPa | 0 mm | - | 268 W/m² | - |
| 1788009756 | 20° C | 68% | 1024.7 hPa | 0 mm | - | 248 W/m² | - |
| 1788009454 | 19.44° C | 68% | 1024.5 hPa | 0 mm | - | 222 W/m² | - |
| 1788009149 | 20.56° C | 65% | 1024.6 hPa | 0 mm | - | 71 W/m² | - |
| 1788008845 | 20.56° C | 64% | 1024.8 hPa | 0 mm | - | 128 W/m² | - |
| 1788008544 | 20.56° C | 64% | 1024.6 hPa | 0 mm | - | 112 W/m² | - |
| 1788008242 | 20.56° C | 66% | 1024.5 hPa | 0 mm | - | 259 W/m² | - |
| 1788007940 | 20° C | 68% | 1024.6 hPa | 0 mm | - | 262 W/m² | - |
* Rain latest hour (hover to see other rain measurements)
** Current wind speed in m/s (hover to see current wind gust speed)